RLSO2: Arkansas River, Ralston, OK

                                SHEF ID:       RLSO2     Arkansas River at Ralston, OK
STATION TYPE:
Regulating: Stage = 16.00, Flow = 78729

PRECIP STAGE STAGE(2) RIV-FLOW AIR-TEMP BAT-LOAD
in ft ft cfs F volt
Ccp-Rev Ccp-Rev Ccp-Rev Ccp-Rev Ccp-Rev Ccp-Rev
(America/Chicago)
03/25 00:00 0.00 3.42 3.46 515 61.52 12.77
03/25 01:00 0.00 3.42 3.46 515 60.98 12.76
03/25 02:00 0.00 3.39 3.43 493 59.90 12.75
03/25 03:00 0.00 3.36 3.46 471 58.82 12.74
03/25 04:00 0.00 3.42 3.43 515 58.28 12.74
03/25 05:00 0.00 3.38 3.46 486 57.74 12.73
03/25 06:00 0.00 3.42 3.46 515 57.20 12.72
03/25 07:00 0.00 3.43 3.46 523 56.48 12.72
03/25 08:00 0.00 3.42 3.42 515 58.10 12.71
03/25 09:00 0.00 3.35 3.41 464 62.60 12.74
03/25 10:00 0.00 3.34 3.40 457 70.16 12.93
03/25 11:00 0.00 3.31 3.39 437 76.28 13.13
03/25 12:00 0.00 3.33 3.39 450 80.06 13.20
03/25 13:00 0.00 3.32 3.40 443 84.02 13.22
03/25 14:00 0.00 3.35 3.39 464 86.90 13.17
03/25 15:00 0.00 3.33 3.39 450 89.42 13.17
03/25 16:00 0.00 3.35 3.42 464 91.22 13.13
03/25 17:00 0.00 3.35 3.41 464 92.48 12.86
03/25 18:00 0.00 3.37 3.41 478 91.94 12.83
03/25 19:00 0.00 3.36 3.41 471 90.50 12.82
03/25 20:00 0.00 3.33 3.41 450 86.00 12.80
03/25 21:00 0.00 3.34 3.39 457 82.40 12.79
03/25 22:00 0.00 3.31 3.40 437 79.88 12.78
03/25 23:00 0.00 3.32 3.39 443 78.98 12.77
Data processed at Thu 26Mar2026 04:21 GMT

NOTICE: If you are parsing this page

Please convert to using our Data API. Starting early 2026 we will be migrating to: https://water.usace.army.mil with modern pages rendered in JavaScript. When this migration completes you will no longer be able to scrape this page! CWMSDataAPI (CDA)

Timeseries IDs (TSIDs)

TSIDs used from left to right in the data table
RALS.Precip-Inc.Total.1Hour.1Hour.Ccp-Rev
RALS.Stage.Inst.1Hour.0.Ccp-Rev
RALS.Stage-Alt.Inst.1Hour.0.Ccp-Rev
RALS.Flow.Inst.1Hour.0.Ccp-Rev
RALS.Temp-Air.Inst.1Hour.0.Ccp-Rev
RALS.Volt-Battery Load.Inst.1Hour.0.Ccp-Rev

                            

All information presented herein is the property of the government of the United States of America and may be revised or deleted at any time without prior notice. Dissemination of this information without the expressed written consent of the Public Affairs Office, Tulsa District U.S. Army Corps of Engineers is strictly prohibited. These data are gathered electronically and, as presented, have NOT undergone any form of quality control. These data are NOT guaranteed to be valid or correct.